Terminal Aerodrome Forecast
Issued by NWS

Home | Current Version | Previous Version | Text Only | Print | Product List | Glossary On
Versions: 1 2 3 4 5 6 7 8 9 10 11 12 13 14 15 16 17 18 19 20 21
965
FTUS46 KMFR 191720
TAFRBG
TAF
KRBG 191720Z 1918/2018 VRB03KT P6SM -SHRA SCT025 OVC050
     FM192100 18008KT P6SM -SHRA SCT025 OVC050
     FM200300 VRB03KT P6SM -RA SCT020 OVC040
     FM201500 18010KT P6SM -RA BKN020 OVC035=

USA.gov is the U.S. government's official web portal to all federal, state and local government web resources and services.